sensor_id;sensor_type;location;lat;lon;timestamp;temperature;humidity
11055;DHT22;5580;50.106;8.702;2023-04-01T00:02:07;11.90;99.90
11055;DHT22;5580;50.106;8.702;2023-04-01T00:04:32;11.90;99.90
11055;DHT22;5580;50.106;8.702;2023-04-01T00:06:58;11.90;99.90
11055;DHT22;5580;50.106;8.702;2023-04-01T00:09:25;11.90;99.90
11055;DHT22;5580;50.106;8.702;2023-04-01T00:11:51;11.90;99.90
11055;DHT22;5580;50.106;8.702;2023-04-01T00:14:17;11.90;99.90
11055;DHT22;5580;50.106;8.702;2023-04-01T00:16:42;11.90;99.90
11055;DHT22;5580;50.106;8.702;2023-04-01T00:19:08;11.90;99.90
11055;DHT22;5580;50.106;8.702;2023-04-01T00:21:34;11.90;99.90
11055;DHT22;5580;50.106;8.702;2023-04-01T00:23:59;11.90;99.90
11055;DHT22;5580;50.106;8.702;2023-04-01T00:26:25;11.90;99.90
11055;DHT22;5580;50.106;8.702;2023-04-01T00:28:51;11.80;99.90
11055;DHT22;5580;50.106;8.702;2023-04-01T00:31:18;11.80;99.90
11055;DHT22;5580;50.106;8.702;2023-04-01T00:33:43;11.80;99.90
11055;DHT22;5580;50.106;8.702;2023-04-01T00:36:15;11.80;99.90
11055;DHT22;5580;50.106;8.702;2023-04-01T00:38:41;11.80;99.90
11055;DHT22;5580;50.106;8.702;2023-04-01T00:41:08;11.80;99.90
11055;DHT22;5580;50.106;8.702;2023-04-01T00:43:35;11.80;99.90
11055;DHT22;5580;50.106;8.702;2023-04-01T00:46:00;11.80;99.90
11055;DHT22;5580;50.106;8.702;2023-04-01T00:48:30;11.80;99.90
11055;DHT22;5580;50.106;8.702;2023-04-01T00:51:08;11.80;99.90
11055;DHT22;5580;50.106;8.702;2023-04-01T00:53:39;11.80;99.90
11055;DHT22;5580;50.106;8.702;2023-04-01T00:56:13;11.80;99.90
11055;DHT22;5580;50.106;8.702;2023-04-01T00:58:47;11.80;99.90
11055;DHT22;5580;50.106;8.702;2023-04-01T01:01:14;11.80;99.90
11055;DHT22;5580;50.106;8.702;2023-04-01T01:03:39;11.70;99.90
11055;DHT22;5580;50.106;8.702;2023-04-01T01:11:39;11.70;99.90
11055;DHT22;5580;50.106;8.702;2023-04-01T01:14:24;11.70;99.90
11055;DHT22;5580;50.106;8.702;2023-04-01T01:17:02;11.70;99.90
11055;DHT22;5580;50.106;8.702;2023-04-01T01:25:25;11.70;99.90
11055;DHT22;5580;50.106;8.702;2023-04-01T01:30:58;11.70;99.90
11055;DHT22;5580;50.106;8.702;2023-04-01T01:35:58;11.60;99.90
11055;DHT22;5580;50.106;8.702;2023-04-01T01:38:28;11.70;99.90
11055;DHT22;5580;50.106;8.702;2023-04-01T01:40:57;11.70;99.90
11055;DHT22;5580;50.106;8.702;2023-04-01T01:43:37;11.70;99.90
11055;DHT22;5580;50.106;8.702;2023-04-01T01:46:10;11.70;99.90
11055;DHT22;5580;50.106;8.702;2023-04-01T01:48:37;11.80;99.90
11055;DHT22;5580;50.106;8.702;2023-04-01T01:51:06;11.70;99.90
11055;DHT22;5580;50.106;8.702;2023-04-01T01:53:31;11.70;99.90
11055;DHT22;5580;50.106;8.702;2023-04-01T01:55:57;11.70;99.90
11055;DHT22;5580;50.106;8.702;2023-04-01T01:58:32;11.70;99.90
11055;DHT22;5580;50.106;8.702;2023-04-01T02:01:04;11.70;99.90
11055;DHT22;5580;50.106;8.702;2023-04-01T02:03:34;11.70;99.90
11055;DHT22;5580;50.106;8.702;2023-04-01T02:06:04;11.70;99.90
11055;DHT22;5580;50.106;8.702;2023-04-01T02:08:43;11.80;99.90
11055;DHT22;5580;50.106;8.702;2023-04-01T02:11:12;11.80;99.90
11055;DHT22;5580;50.106;8.702;2023-04-01T02:14:01;11.80;99.90
11055;DHT22;5580;50.106;8.702;2023-04-01T02:18:58;11.70;99.90
11055;DHT22;5580;50.106;8.702;2023-04-01T02:21:29;11.70;99.90
11055;DHT22;5580;50.106;8.702;2023-04-01T02:23:56;11.70;99.90
11055;DHT22;5580;50.106;8.702;2023-04-01T02:26:24;11.70;99.90
11055;DHT22;5580;50.106;8.702;2023-04-01T02:28:53;11.80;99.90
11055;DHT22;5580;50.106;8.702;2023-04-01T02:31:20;11.80;99.90
11055;DHT22;5580;50.106;8.702;2023-04-01T02:33:46;11.80;99.90
11055;DHT22;5580;50.106;8.702;2023-04-01T02:36:13;11.80;99.90
11055;DHT22;5580;50.106;8.702;2023-04-01T02:38:41;11.80;99.90
11055;DHT22;5580;50.106;8.702;2023-04-01T02:41:07;11.80;99.90
11055;DHT22;5580;50.106;8.702;2023-04-01T02:43:32;11.80;99.90
11055;DHT22;5580;50.106;8.702;2023-04-01T02:45:58;11.80;99.90
11055;DHT22;5580;50.106;8.702;2023-04-01T02:48:24;11.80;99.90
11055;DHT22;5580;50.106;8.702;2023-04-01T02:50:49;11.80;99.90
11055;DHT22;5580;50.106;8.702;2023-04-01T02:53:16;11.80;99.90
11055;DHT22;5580;50.106;8.702;2023-04-01T02:55:41;11.80;99.90
11055;DHT22;5580;50.106;8.702;2023-04-01T02:58:07;11.80;99.90
11055;DHT22;5580;50.106;8.702;2023-04-01T03:00:33;11.80;99.90
11055;DHT22;5580;50.106;8.702;2023-04-01T03:02:58;11.80;99.90
11055;DHT22;5580;50.106;8.702;2023-04-01T03:05:24;11.70;99.90
11055;DHT22;5580;50.106;8.702;2023-04-01T03:07:50;11.70;99.90
11055;DHT22;5580;50.106;8.702;2023-04-01T03:10:16;11.70;99.90
11055;DHT22;5580;50.106;8.702;2023-04-01T03:12:41;11.60;99.90
11055;DHT22;5580;50.106;8.702;2023-04-01T03:15:10;11.60;99.90
11055;DHT22;5580;50.106;8.702;2023-04-01T03:17:36;11.60;99.90
11055;DHT22;5580;50.106;8.702;2023-04-01T03:20:02;11.60;99.90
11055;DHT22;5580;50.106;8.702;2023-04-01T03:22:30;11.60;99.90
11055;DHT22;5580;50.106;8.702;2023-04-01T03:24:56;11.60;99.90
11055;DHT22;5580;50.106;8.702;2023-04-01T03:27:21;11.60;99.90
11055;DHT22;5580;50.106;8.702;2023-04-01T03:29:47;11.60;99.90
11055;DHT22;5580;50.106;8.702;2023-04-01T03:32:12;11.60;99.90
11055;DHT22;5580;50.106;8.702;2023-04-01T03:34:38;11.60;99.90
11055;DHT22;5580;50.106;8.702;2023-04-01T03:37:04;11.60;99.90
11055;DHT22;5580;50.106;8.702;2023-04-01T03:39:30;11.60;99.90
11055;DHT22;5580;50.106;8.702;2023-04-01T03:41:56;11.60;99.90
11055;DHT22;5580;50.106;8.702;2023-04-01T03:44:21;11.60;99.90
11055;DHT22;5580;50.106;8.702;2023-04-01T03:46:47;11.60;99.90
11055;DHT22;5580;50.106;8.702;2023-04-01T03:49:13;11.60;99.90
11055;DHT22;5580;50.106;8.702;2023-04-01T03:51:39;11.60;99.90
11055;DHT22;5580;50.106;8.702;2023-04-01T03:54:06;11.60;99.90
11055;DHT22;5580;50.106;8.702;2023-04-01T03:56:32;11.50;99.90
11055;DHT22;5580;50.106;8.702;2023-04-01T03:58:58;11.50;99.90
11055;DHT22;5580;50.106;8.702;2023-04-01T04:01:26;11.50;99.90
11055;DHT22;5580;50.106;8.702;2023-04-01T04:03:52;11.50;99.90
11055;DHT22;5580;50.106;8.702;2023-04-01T04:06:18;11.50;99.90
11055;DHT22;5580;50.106;8.702;2023-04-01T04:08:44;11.50;99.90
11055;DHT22;5580;50.106;8.702;2023-04-01T04:11:10;11.50;99.90
11055;DHT22;5580;50.106;8.702;2023-04-01T04:13:36;11.50;99.90
11055;DHT22;5580;50.106;8.702;2023-04-01T04:16:03;11.40;99.90
11055;DHT22;5580;50.106;8.702;2023-04-01T04:18:29;11.40;99.90
11055;DHT22;5580;50.106;8.702;2023-04-01T04:20:57;11.40;99.90
11055;DHT22;5580;50.106;8.702;2023-04-01T04:23:23;11.40;99.90
11055;DHT22;5580;50.106;8.702;2023-04-01T04:26:04;11.40;99.90
11055;DHT22;5580;50.106;8.702;2023-04-01T04:28:30;11.40;99.90
11055;DHT22;5580;50.106;8.702;2023-04-01T04:30:57;11.40;99.90
11055;DHT22;5580;50.106;8.702;2023-04-01T04:33:23;11.40;99.90
11055;DHT22;5580;50.106;8.702;2023-04-01T04:35:50;11.40;99.90
11055;DHT22;5580;50.106;8.702;2023-04-01T04:38:16;11.40;99.90
11055;DHT22;5580;50.106;8.702;2023-04-01T04:40:42;11.40;99.90
11055;DHT22;5580;50.106;8.702;2023-04-01T04:43:11;11.40;99.90
11055;DHT22;5580;50.106;8.702;2023-04-01T04:45:37;11.40;99.90
11055;DHT22;5580;50.106;8.702;2023-04-01T04:48:03;11.40;99.90
11055;DHT22;5580;50.106;8.702;2023-04-01T04:50:28;11.40;99.90
11055;DHT22;5580;50.106;8.702;2023-04-01T04:52:54;11.40;99.90
11055;DHT22;5580;50.106;8.702;2023-04-01T04:55:20;11.40;99.90
11055;DHT22;5580;50.106;8.702;2023-04-01T04:57:46;11.40;99.90
11055;DHT22;5580;50.106;8.702;2023-04-01T05:00:12;11.40;99.90
11055;DHT22;5580;50.106;8.702;2023-04-01T05:02:37;11.40;99.90
11055;DHT22;5580;50.106;8.702;2023-04-01T05:05:03;11.40;99.90
11055;DHT22;5580;50.106;8.702;2023-04-01T05:07:29;11.40;99.90
11055;DHT22;5580;50.106;8.702;2023-04-01T05:09:55;11.40;99.90
11055;DHT22;5580;50.106;8.702;2023-04-01T05:12:21;11.40;99.90
11055;DHT22;5580;50.106;8.702;2023-04-01T05:14:46;11.40;99.90
11055;DHT22;5580;50.106;8.702;2023-04-01T05:17:12;11.30;99.90
11055;DHT22;5580;50.106;8.702;2023-04-01T05:19:39;11.40;99.90
11055;DHT22;5580;50.106;8.702;2023-04-01T05:22:05;11.40;99.90
11055;DHT22;5580;50.106;8.702;2023-04-01T05:24:31;11.40;99.90
11055;DHT22;5580;50.106;8.702;2023-04-01T05:26:57;11.40;99.90
11055;DHT22;5580;50.106;8.702;2023-04-01T05:29:25;11.40;99.90
11055;DHT22;5580;50.106;8.702;2023-04-01T05:31:51;11.40;99.90
11055;DHT22;5580;50.106;8.702;2023-04-01T05:34:17;11.40;99.90
11055;DHT22;5580;50.106;8.702;2023-04-01T05:36:43;11.30;99.90
11055;DHT22;5580;50.106;8.702;2023-04-01T05:39:09;11.30;99.90
11055;DHT22;5580;50.106;8.702;2023-04-01T05:41:35;11.30;99.90
11055;DHT22;5580;50.106;8.702;2023-04-01T05:44:01;11.30;99.90
11055;DHT22;5580;50.106;8.702;2023-04-01T05:46:27;11.30;99.90
11055;DHT22;5580;50.106;8.702;2023-04-01T05:48:52;11.20;99.90
11055;DHT22;5580;50.106;8.702;2023-04-01T05:51:18;11.20;99.90
11055;DHT22;5580;50.106;8.702;2023-04-01T05:53:44;11.20;99.90
11055;DHT22;5580;50.106;8.702;2023-04-01T05:56:09;11.20;99.90
11055;DHT22;5580;50.106;8.702;2023-04-01T05:58:38;11.20;99.90
11055;DHT22;5580;50.106;8.702;2023-04-01T06:01:06;11.20;99.90
11055;DHT22;5580;50.106;8.702;2023-04-01T06:03:33;11.20;99.90
11055;DHT22;5580;50.106;8.702;2023-04-01T06:05:58;11.20;99.90
11055;DHT22;5580;50.106;8.702;2023-04-01T06:08:26;11.20;99.90
11055;DHT22;5580;50.106;8.702;2023-04-01T06:42:58;11.10;99.90
11055;DHT22;5580;50.106;8.702;2023-04-01T06:54:11;11.20;99.90
11055;DHT22;5580;50.106;8.702;2023-04-01T06:56:42;11.20;99.90
11055;DHT22;5580;50.106;8.702;2023-04-01T06:59:20;11.20;99.90
11055;DHT22;5580;50.106;8.702;2023-04-01T07:01:53;11.20;99.90
11055;DHT22;5580;50.106;8.702;2023-04-01T07:04:35;11.20;99.90
11055;DHT22;5580;50.106;8.702;2023-04-01T07:09:45;11.20;99.90
11055;DHT22;5580;50.106;8.702;2023-04-01T07:14:58;11.30;99.90
11055;DHT22;5580;50.106;8.702;2023-04-01T07:17:32;11.30;99.90
11055;DHT22;5580;50.106;8.702;2023-04-01T07:22:46;11.30;99.90
11055;DHT22;5580;50.106;8.702;2023-04-01T07:27:39;11.20;99.90
11055;DHT22;5580;50.106;8.702;2023-04-01T07:30:19;11.20;99.90
11055;DHT22;5580;50.106;8.702;2023-04-01T07:35:33;11.20;99.90
11055;DHT22;5580;50.106;8.702;2023-04-01T07:38:32;11.30;99.90
11055;DHT22;5580;50.106;8.702;2023-04-01T07:41:12;11.30;99.90
11055;DHT22;5580;50.106;8.702;2023-04-01T07:44:00;11.30;99.90
11055;DHT22;5580;50.106;8.702;2023-04-01T07:46:48;11.40;99.90
11055;DHT22;5580;50.106;8.702;2023-04-01T07:49:38;11.40;99.90
11055;DHT22;5580;50.106;8.702;2023-04-01T07:52:06;11.40;99.90
11055;DHT22;5580;50.106;8.702;2023-04-01T07:54:46;11.40;99.90
11055;DHT22;5580;50.106;8.702;2023-04-01T08:02:46;11.50;99.90
11055;DHT22;5580;50.106;8.702;2023-04-01T08:05:30;11.50;99.90
11055;DHT22;5580;50.106;8.702;2023-04-01T08:08:21;11.40;99.90
11055;DHT22;5580;50.106;8.702;2023-04-01T08:10:57;11.50;99.90
11055;DHT22;5580;50.106;8.702;2023-04-01T08:16:26;11.50;99.90
11055;DHT22;5580;50.106;8.702;2023-04-01T08:19:06;11.60;99.90
11055;DHT22;5580;50.106;8.702;2023-04-01T08:21:47;11.60;99.90
11055;DHT22;5580;50.106;8.702;2023-04-01T08:24:25;11.60;99.90
11055;DHT22;5580;50.106;8.702;2023-04-01T08:26:56;11.60;99.90
11055;DHT22;5580;50.106;8.702;2023-04-01T08:29:35;11.70;99.90
11055;DHT22;5580;50.106;8.702;2023-04-01T08:34:36;11.70;99.90
11055;DHT22;5580;50.106;8.702;2023-04-01T08:37:07;11.70;99.90
11055;DHT22;5580;50.106;8.702;2023-04-01T08:39:41;11.70;99.90
11055;DHT22;5580;50.106;8.702;2023-04-01T08:48:17;11.80;99.90
11055;DHT22;5580;50.106;8.702;2023-04-01T09:04:32;12.10;99.90
11055;DHT22;5580;50.106;8.702;2023-04-01T09:12:31;12.10;99.90
11055;DHT22;5580;50.106;8.702;2023-04-01T09:18:31;12.10;99.90
11055;DHT22;5580;50.106;8.702;2023-04-01T09:27:03;12.00;99.90
11055;DHT22;5580;50.106;8.702;2023-04-01T09:29:49;12.10;99.90
11055;DHT22;5580;50.106;8.702;2023-04-01T09:35:39;12.10;99.90
11055;DHT22;5580;50.106;8.702;2023-04-01T09:52:31;12.20;99.90
11055;DHT22;5580;50.106;8.702;2023-04-01T09:58:10;12.10;99.90
11055;DHT22;5580;50.106;8.702;2023-04-01T10:03:36;12.10;99.90
11055;DHT22;5580;50.106;8.702;2023-04-01T10:09:14;12.20;99.90
11055;DHT22;5580;50.106;8.702;2023-04-01T10:12:17;12.20;99.90
11055;DHT22;5580;50.106;8.702;2023-04-01T10:29:02;12.40;99.90
11055;DHT22;5580;50.106;8.702;2023-04-01T10:43:19;12.40;99.90
11055;DHT22;5580;50.106;8.702;2023-04-01T10:55:03;12.50;99.90
11055;DHT22;5580;50.106;8.702;2023-04-01T11:00:18;12.70;99.90
11055;DHT22;5580;50.106;8.702;2023-04-01T11:03:11;12.70;99.90
11055;DHT22;5580;50.106;8.702;2023-04-01T11:06:22;12.70;99.90
11055;DHT22;5580;50.106;8.702;2023-04-01T11:20:02;12.80;99.90
11055;DHT22;5580;50.106;8.702;2023-04-01T11:26:02;12.90;99.90
11055;DHT22;5580;50.106;8.702;2023-04-01T11:31:40;12.90;99.90
11055;DHT22;5580;50.106;8.702;2023-04-01T11:45:35;12.90;99.90
11055;DHT22;5580;50.106;8.702;2023-04-01T11:48:40;13.00;99.90
11055;DHT22;5580;50.106;8.702;2023-04-01T11:51:31;13.00;99.90
11055;DHT22;5580;50.106;8.702;2023-04-01T11:54:09;13.00;99.90
11055;DHT22;5580;50.106;8.702;2023-04-01T11:57:03;13.00;99.90
11055;DHT22;5580;50.106;8.702;2023-04-01T12:02:37;13.00;99.90
11055;DHT22;5580;50.106;8.702;2023-04-01T12:05:24;12.90;99.90
11055;DHT22;5580;50.106;8.702;2023-04-01T12:08:02;12.90;99.90
11055;DHT22;5580;50.106;8.702;2023-04-01T12:10:46;12.80;99.90
11055;DHT22;5580;50.106;8.702;2023-04-01T12:13:37;12.80;99.90
11055;DHT22;5580;50.106;8.702;2023-04-01T12:16:23;12.90;99.90
11055;DHT22;5580;50.106;8.702;2023-04-01T12:21:43;12.90;99.90
11055;DHT22;5580;50.106;8.702;2023-04-01T12:30:01;12.80;99.90
11055;DHT22;5580;50.106;8.702;2023-04-01T12:35:23;12.80;99.90
11055;DHT22;5580;50.106;8.702;2023-04-01T12:40:46;12.80;99.90
11055;DHT22;5580;50.106;8.702;2023-04-01T12:49:31;12.70;99.90
11055;DHT22;5580;50.106;8.702;2023-04-01T12:52:20;12.70;99.90
11055;DHT22;5580;50.106;8.702;2023-04-01T13:24:44;12.90;99.90
11055;DHT22;5580;50.106;8.702;2023-04-01T13:41:06;13.20;99.90
11055;DHT22;5580;50.106;8.702;2023-04-01T13:43:39;13.20;99.90
11055;DHT22;5580;50.106;8.702;2023-04-01T13:48:48;13.30;99.90
11055;DHT22;5580;50.106;8.702;2023-04-01T13:56:49;13.40;99.90
11055;DHT22;5580;50.106;8.702;2023-04-01T14:02:20;13.30;99.90
11055;DHT22;5580;50.106;8.702;2023-04-01T14:05:14;13.30;99.90
11055;DHT22;5580;50.106;8.702;2023-04-01T14:07:57;13.20;99.90
11055;DHT22;5580;50.106;8.702;2023-04-01T14:24:42;13.30;99.90
11055;DHT22;5580;50.106;8.702;2023-04-01T14:29:46;13.30;99.90
11055;DHT22;5580;50.106;8.702;2023-04-01T14:34:50;13.30;99.90
11055;DHT22;5580;50.106;8.702;2023-04-01T14:37:43;13.30;99.90
11055;DHT22;5580;50.106;8.702;2023-04-01T14:40:21;13.30;99.90
11055;DHT22;5580;50.106;8.702;2023-04-01T14:46:51;13.40;99.90
11055;DHT22;5580;50.106;8.702;2023-04-01T14:49:22;13.40;99.90
11055;DHT22;5580;50.106;8.702;2023-04-01T14:51:48;13.40;99.90
11055;DHT22;5580;50.106;8.702;2023-04-01T14:54:17;13.30;99.90
11055;DHT22;5580;50.106;8.702;2023-04-01T14:59:28;13.40;99.90
11055;DHT22;5580;50.106;8.702;2023-04-01T15:13:48;13.40;99.90
11055;DHT22;5580;50.106;8.702;2023-04-01T15:16:27;13.30;99.90
11055;DHT22;5580;50.106;8.702;2023-04-01T15:32:45;13.40;99.90
11055;DHT22;5580;50.106;8.702;2023-04-01T15:40:30;13.30;99.90
11055;DHT22;5580;50.106;8.702;2023-04-01T15:54:43;13.20;99.90
11055;DHT22;5580;50.106;8.702;2023-04-01T16:02:34;13.20;99.90
11055;DHT22;5580;50.106;8.702;2023-04-01T16:08:37;13.20;99.90
11055;DHT22;5580;50.106;8.702;2023-04-01T16:19:23;13.10;99.90
11055;DHT22;5580;50.106;8.702;2023-04-01T16:22:07;13.10;99.90
11055;DHT22;5580;50.106;8.702;2023-04-01T16:27:24;13.10;99.90
11055;DHT22;5580;50.106;8.702;2023-04-01T16:30:03;13.10;99.90
11055;DHT22;5580;50.106;8.702;2023-04-01T16:32:54;13.10;99.90
11055;DHT22;5580;50.106;8.702;2023-04-01T16:38:43;13.10;99.90
11055;DHT22;5580;50.106;8.702;2023-04-01T16:41:24;13.20;99.90
11055;DHT22;5580;50.106;8.702;2023-04-01T16:43:52;13.20;99.90
11055;DHT22;5580;50.106;8.702;2023-04-01T16:49:00;13.10;99.90
11055;DHT22;5580;50.106;8.702;2023-04-01T16:54:35;13.10;99.90
11055;DHT22;5580;50.106;8.702;2023-04-01T17:00:15;13.00;99.90
11055;DHT22;5580;50.106;8.702;2023-04-01T17:05:38;13.00;99.90
11055;DHT22;5580;50.106;8.702;2023-04-01T17:08:37;12.90;99.90
11055;DHT22;5580;50.106;8.702;2023-04-01T17:22:49;12.90;99.90
11055;DHT22;5580;50.106;8.702;2023-04-01T17:25:20;12.90;99.90
11055;DHT22;5580;50.106;8.702;2023-04-01T17:27:51;12.90;99.90
11055;DHT22;5580;50.106;8.702;2023-04-01T17:30:38;12.90;99.90
11055;DHT22;5580;50.106;8.702;2023-04-01T17:44:23;12.70;99.90
11055;DHT22;5580;50.106;8.702;2023-04-01T17:49:39;12.60;99.90
11055;DHT22;5580;50.106;8.702;2023-04-01T17:55:05;12.50;99.90
11055;DHT22;5580;50.106;8.702;2023-04-01T17:57:58;12.50;99.90
11055;DHT22;5580;50.106;8.702;2023-04-01T18:03:13;12.50;99.90
11055;DHT22;5580;50.106;8.702;2023-04-01T18:06:14;12.50;99.90
11055;DHT22;5580;50.106;8.702;2023-04-01T18:14:22;12.40;99.90
11055;DHT22;5580;50.106;8.702;2023-04-01T18:22:29;12.40;99.90
11055;DHT22;5580;50.106;8.702;2023-04-01T18:30:03;12.40;99.90
11055;DHT22;5580;50.106;8.702;2023-04-01T18:35:15;12.40;99.90
11055;DHT22;5580;50.106;8.702;2023-04-01T18:37:48;12.50;99.90
11055;DHT22;5580;50.106;8.702;2023-04-01T18:40:22;12.40;99.90
11055;DHT22;5580;50.106;8.702;2023-04-01T18:46:26;12.40;99.90
11055;DHT22;5580;50.106;8.702;2023-04-01T18:49:16;12.40;99.90
11055;DHT22;5580;50.106;8.702;2023-04-01T18:51:53;12.40;99.90
11055;DHT22;5580;50.106;8.702;2023-04-01T18:54:29;12.40;99.90
11055;DHT22;5580;50.106;8.702;2023-04-01T18:57:07;12.40;99.90
11055;DHT22;5580;50.106;8.702;2023-04-01T18:59:40;12.40;99.90
11055;DHT22;5580;50.106;8.702;2023-04-01T19:02:40;12.40;99.90
11055;DHT22;5580;50.106;8.702;2023-04-01T19:05:15;12.40;99.90
11055;DHT22;5580;50.106;8.702;2023-04-01T19:13:39;12.40;99.90
11055;DHT22;5580;50.106;8.702;2023-04-01T19:19:23;12.30;99.90
11055;DHT22;5580;50.106;8.702;2023-04-01T19:27:21;12.40;99.90
11055;DHT22;5580;50.106;8.702;2023-04-01T19:30:07;12.40;99.90
11055;DHT22;5580;50.106;8.702;2023-04-01T19:35:52;12.30;99.90
11055;DHT22;5580;50.106;8.702;2023-04-01T19:44:28;12.30;99.90
11055;DHT22;5580;50.106;8.702;2023-04-01T19:47:18;12.30;99.90
11055;DHT22;5580;50.106;8.702;2023-04-01T19:52:40;12.20;99.90
11055;DHT22;5580;50.106;8.702;2023-04-01T20:00:35;12.00;99.90
11055;DHT22;5580;50.106;8.702;2023-04-01T20:03:15;12.00;99.90
11055;DHT22;5580;50.106;8.702;2023-04-01T20:11:51;11.90;99.90
11055;DHT22;5580;50.106;8.702;2023-04-01T20:15:20;12.00;99.90
11055;DHT22;5580;50.106;8.702;2023-04-01T20:17:44;12.00;99.90
11055;DHT22;5580;50.106;8.702;2023-04-01T20:28:00;11.90;99.90
11055;DHT22;5580;50.106;8.702;2023-04-01T20:33:21;11.80;99.90
11055;DHT22;5580;50.106;8.702;2023-04-01T20:44:11;12.00;99.90
11055;DHT22;5580;50.106;8.702;2023-04-01T20:49:24;12.00;99.90
11055;DHT22;5580;50.106;8.702;2023-04-01T20:57:17;12.00;99.90
11055;DHT22;5580;50.106;8.702;2023-04-01T20:59:56;12.00;99.90
11055;DHT22;5580;50.106;8.702;2023-04-01T21:11:27;12.10;99.90
11055;DHT22;5580;50.106;8.702;2023-04-01T21:16:51;12.10;99.90
11055;DHT22;5580;50.106;8.702;2023-04-01T21:22:13;12.10;99.90
11055;DHT22;5580;50.106;8.702;2023-04-01T21:27:34;12.00;99.90
11055;DHT22;5580;50.106;8.702;2023-04-01T21:47:08;12.00;99.90
11055;DHT22;5580;50.106;8.702;2023-04-01T22:00:32;12.00;99.90
11055;DHT22;5580;50.106;8.702;2023-04-01T22:09:17;11.90;99.90
11055;DHT22;5580;50.106;8.702;2023-04-01T22:14:48;12.00;99.90
11055;DHT22;5580;50.106;8.702;2023-04-01T22:17:35;11.90;99.90
11055;DHT22;5580;50.106;8.702;2023-04-01T22:23:14;11.90;99.90
11055;DHT22;5580;50.106;8.702;2023-04-01T22:28:45;11.90;99.90
11055;DHT22;5580;50.106;8.702;2023-04-01T22:31:15;11.90;99.90
11055;DHT22;5580;50.106;8.702;2023-04-01T22:34:02;11.90;99.90
11055;DHT22;5580;50.106;8.702;2023-04-01T22:52:45;11.90;99.90
11055;DHT22;5580;50.106;8.702;2023-04-01T22:55:25;11.90;99.90
11055;DHT22;5580;50.106;8.702;2023-04-01T23:00:49;11.90;99.90
11055;DHT22;5580;50.106;8.702;2023-04-01T23:05:59;11.80;99.90
11055;DHT22;5580;50.106;8.702;2023-04-01T23:08:53;11.80;99.90
11055;DHT22;5580;50.106;8.702;2023-04-01T23:11:28;11.80;99.90
11055;DHT22;5580;50.106;8.702;2023-04-01T23:16:43;11.80;99.90
11055;DHT22;5580;50.106;8.702;2023-04-01T23:19:25;11.90;99.90
11055;DHT22;5580;50.106;8.702;2023-04-01T23:22:12;11.90;99.90
11055;DHT22;5580;50.106;8.702;2023-04-01T23:24:53;11.80;99.90
11055;DHT22;5580;50.106;8.702;2023-04-01T23:27:32;11.70;99.90
11055;DHT22;5580;50.106;8.702;2023-04-01T23:30:03;11.70;99.90
11055;DHT22;5580;50.106;8.702;2023-04-01T23:32:29;11.60;99.90
11055;DHT22;5580;50.106;8.702;2023-04-01T23:34:57;11.60;99.90
11055;DHT22;5580;50.106;8.702;2023-04-01T23:37:24;11.60;99.90
11055;DHT22;5580;50.106;8.702;2023-04-01T23:39:57;11.50;99.90
11055;DHT22;5580;50.106;8.702;2023-04-01T23:42:31;11.50;99.90
11055;DHT22;5580;50.106;8.702;2023-04-01T23:45:17;11.50;99.90
11055;DHT22;5580;50.106;8.702;2023-04-01T23:47:47;11.60;99.90
11055;DHT22;5580;50.106;8.702;2023-04-01T23:50:22;11.60;99.90
11055;DHT22;5580;50.106;8.702;2023-04-01T23:52:53;11.60;99.90
11055;DHT22;5580;50.106;8.702;2023-04-01T23:55:26;11.60;99.90
